Buoy 44845

sailwx.info

Track history (hours):
 
Tides and Currents Weather Stations Pressure Air Temp Water Temp Dewpoint Dewpoint Depression Visibility Wind Speed Wind Dir Waves Ship Positions

Drifting buoy 44845

Last reported at 2016-Aug-25 00:01 UTC. Time now 2016-Aug-25 01:04 UTC.
Position N 71°55' E 019°39'.

Date/timePositionNaut miles runAvg speedWind from/ knotsBaromVisibWave heightAir tempDewpointWater temp
2016-Aug-25 00:01N 71°55' E 019°39'0 0.2
2016-Aug-24 23:01N 71°55' E 019°39'0 0.3
2016-Aug-24 22:01N 71°55' E 019°40'0 0.3
2016-Aug-24 21:01N 71°55' E 019°39'1 0.5
2016-Aug-24 20:01N 71°56' E 019°38'1 0.6
2016-Aug-24 19:01N 71°56' E 019°36'1 0.7
2016-Aug-24 18:01N 71°56' E 019°34'1 0.8
2016-Aug-24 17:01N 71°56' E 019°31'1 0.7
2016-Aug-24 16:01N 71°56' E 019°29'1 0.6
2016-Aug-24 15:01N 71°56' E 019°27'0 0.4
2016-Aug-24 14:01N 71°56' E 019°26'0 0.3
2016-Aug-24 13:01N 71°56' E 019°25'0 0.1
2016-Aug-24 12:01N 71°56' E 019°25'0 0.2
2016-Aug-24 10:01N 71°56' E 019°25'0 0.3
2016-Aug-24 09:01N 71°56' E 019°25'0 0.4
2016-Aug-24 08:01N 71°57' E 019°24'1 0.5
2016-Aug-24 07:01N 71°57' E 019°23'1 0.6
2016-Aug-24 06:01N 71°57' E 019°21'1 0.7
2016-Aug-24 05:01N 71°57' E 019°19'1 0.7
2016-Aug-24 04:01N 71°57' E 019°17'1 0.5
2016-Aug-24 03:01N 71°57' E 019°15'0 0.4
2016-Aug-24 02:01N 71°57' E 019°14'0 0.1
2016-Aug-24 01:01N 71°57' E 019°13'0 0.2
2016-Aug-24 00:01N 71°57' E 019°14'0 0.3
2016-Aug-23 23:01N 71°58' E 019°14'1 0.5
2016-Aug-23 22:01N 71°58' E 019°15'1 0.5
2016-Aug-23 21:01N 71°59' E 019°16'1 0.6
2016-Aug-23 20:01N 71°59' E 019°16'1 0.6
2016-Aug-23 19:01N 71°60' E 019°15'1 0.6
2016-Aug-23 18:01N 72°00' E 019°14'1 0.7
2016-Aug-23 17:01N 72°00' E 019°12'1 0.8
2016-Aug-23 16:01N 72°00' E 019°09'1 0.7
2016-Aug-23 15:01N 72°00' E 019°07'1 0.6
2016-Aug-23 14:01N 71°60' E 019°05'0 0.4
2016-Aug-23 13:01N 71°59' E 019°04'0 0.2
2016-Aug-23 12:01N 71°59' E 019°05'0 0.3
2016-Aug-23 11:01N 71°59' E 019°06'0 0.4
2016-Aug-23 10:01N 71°59' E 019°06'0 0.5
2016-Aug-23 09:01N 71°60' E 019°07'1 0.5
2016-Aug-23 08:01N 72°00' E 019°08'1 0.5
2016-Aug-23 07:01N 72°01' E 019°08'1 0.6
2016-Aug-23 06:01N 72°01' E 019°06'1 0.7
2016-Aug-23 05:01N 72°02' E 019°04'1 0.7
2016-Aug-23 04:01N 72°02' E 019°02'1 0.7
2016-Aug-23 03:01N 72°02' E 018°60'1 0.6
2016-Aug-23 02:01N 72°02' E 018°58'0 0.4
2016-Aug-23 01:01N 72°01' E 018°57'0 0.2
2016-Aug-23 00:01N 72°01' E 018°57'0 0.2
2016-Aug-22 22:01N 72°02' E 018°58'0 0.4
2016-Aug-22 21:01N 72°02' E 018°58'1 0.5
2016-Aug-22 20:01N 72°03' E 018°58'1 0.6
2016-Aug-22 19:01N 72°03' E 018°57'1 0.7
2016-Aug-22 18:01N 72°03' E 018°56'1 0.8
2016-Aug-22 17:01N 72°04' E 018°53'1 0.9
2016-Aug-22 16:01N 72°04' E 018°50'1 0.8
2016-Aug-22 15:01N 72°04' E 018°48'1 0.6
2016-Aug-22 13:01N 72°04' E 018°44'0 0.2
2016-Aug-22 12:01N 72°03' E 018°43'0 0.1
2016-Aug-22 11:01N 72°03' E 018°43'0 0.2
2016-Aug-22 10:01N 72°03' E 018°44'0 0.4
2016-Aug-22 09:01N 72°04' E 018°45'0 0.4
2016-Aug-22 08:01N 72°04' E 018°45'0 0.4
2016-Aug-22 07:01N 72°05' E 018°44'0 0.5
2016-Aug-22 06:01N 72°05' E 018°43'1 0.6
2016-Aug-22 05:01N 72°05' E 018°42'1 0.7
2016-Aug-22 04:01N 72°05' E 018°39'1 0.8
2016-Aug-22 03:01N 72°05' E 018°37'1 0.6
2016-Aug-22 02:01N 72°05' E 018°35'1 0.5
2016-Aug-22 01:01N 72°05' E 018°33'0 0.4
2016-Aug-22 00:01N 72°04' E 018°32'0 0.2
2016-Aug-21 23:01N 72°04' E 018°32'0 0.2
2016-Aug-21 22:01N 72°04' E 018°33'0 0.3
2016-Aug-21 21:01N 72°04' E 018°34'0 0.4
2016-Aug-21 20:01N 72°05' E 018°34'0 0.5
2016-Aug-21 19:01N 72°05' E 018°35'1 0.5
2016-Aug-21 18:01N 72°06' E 018°34'1 0.7
2016-Aug-21 17:01N 72°06' E 018°32'1 0.8
2016-Aug-21 16:01N 72°06' E 018°30'1 0.8
2016-Aug-21 15:01N 72°06' E 018°27'1 0.9
2016-Aug-21 14:01N 72°06' E 018°24'1 0.6
2016-Aug-21 12:01N 72°06' E 018°21'1 0.3
2016-Aug-21 10:01N 72°06' E 018°20'1 0.3
2016-Aug-21 08:01N 72°06' E 018°22'0 0.5
2016-Aug-21 07:01N 72°06' E 018°23'1 0.5
2016-Aug-21 06:01N 72°06' E 018°24'0 0.4
2016-Aug-21 05:01N 72°07' E 018°24'0 0.5
2016-Aug-21 04:01N 72°07' E 018°24'0 0.5
2016-Aug-21 03:01N 72°07' E 018°22'0 0.5
2016-Aug-21 02:01N 72°08' E 018°21'0 0.4
2016-Aug-21 01:01N 72°08' E 018°20'0 0.2
2016-Aug-21 00:01N 72°08' E 018°19'0 0.1
2016-Aug-20 23:01N 72°08' E 018°19'0 0.2
2016-Aug-20 22:01N 72°08' E 018°20'0 0.3
2016-Aug-20 21:01N 72°08' E 018°21'0 0.4
2016-Aug-20 20:01N 72°08' E 018°21'0 0.3
2016-Aug-20 19:01N 72°08' E 018°22'0 0.4
2016-Aug-20 18:01N 72°08' E 018°23'0 0.4
2016-Aug-20 17:01N 72°09' E 018°23'1 0.5
2016-Aug-20 15:01N 72°09' E 018°21'0 0.5
2016-Aug-20 14:01N 72°09' E 018°20'0 0.5
2016-Aug-20 13:01N 72°09' E 018°18'0 0.4
2016-Aug-20 12:01N 72°09' E 018°17'0 0.4
2016-Aug-20 11:01N 72°09' E 018°17'1 0.5
2016-Aug-20 10:01N 72°08' E 018°18'1 0.6
2016-Aug-20 08:01N 72°08' E 018°22'1 0.7
2016-Aug-20 07:01N 72°08' E 018°24'1 0.7
2016-Aug-20 06:01N 72°08' E 018°27'1 0.7
2016-Aug-20 05:01N 72°08' E 018°29'1 0.6
2016-Aug-20 04:01N 72°09' E 018°29'1 0.7
2016-Aug-20 03:01N 72°10' E 018°29'1 0.7
2016-Aug-20 02:01N 72°10' E 018°28'1 0.7
2016-Aug-20 01:01N 72°11' E 018°26'1 0.7
2016-Aug-20 00:01N 72°11' E 018°24'0 0.5
2016-Aug-19 23:01N 72°11' E 018°22'0 0.2
2016-Aug-19 22:01N 72°11' E 018°22'0 0.1
2016-Aug-19 21:01N 72°11' E 018°21'0 0.2
2016-Aug-19 20:01N 72°11' E 018°22'0 0.3
2016-Aug-19 19:01N 72°11' E 018°23'0 0.4
2016-Aug-19 18:01N 72°11' E 018°24'2 0.6
2016-Aug-19 15:01N 72°13' E 018°21'1 0.9
2016-Aug-19 14:01N 72°13' E 018°18'1 0.9
2016-Aug-19 13:01N 72°13' E 018°15'1 0.6
2016-Aug-19 12:01N 72°13' E 018°14'1 0.5
2016-Aug-19 11:01N 72°13' E 018°12'0 0.4
2016-Aug-19 10:01N 72°13' E 018°11'0 0.3
2016-Aug-19 09:01N 72°12' E 018°11'0 0.2
2016-Aug-19 08:01N 72°12' E 018°11'0 0.2
2016-Aug-19 07:01N 72°12' E 018°11'0 0.3
2016-Aug-19 06:01N 72°12' E 018°12'0 0.3
2016-Aug-19 05:01N 72°12' E 018°13'0 0.4
2016-Aug-19 04:01N 72°13' E 018°13'1 0.6
2016-Aug-19 03:01N 72°13' E 018°13'1 0.7
2016-Aug-19 02:01N 72°14' E 018°11'1 0.8
2016-Aug-19 01:01N 72°14' E 018°09'1 0.9
2016-Aug-19 00:01N 72°15' E 018°06'1 0.9
2016-Aug-18 23:01N 72°15' E 018°03'1 0.7
2016-Aug-18 22:01N 72°15' E 018°01'1 0.5
2016-Aug-18 21:01N 72°14' E 017°60'0 0.4
2016-Aug-18 20:01N 72°14' E 017°59'0 0.3
2016-Aug-18 19:01N 72°14' E 017°58'0 0.2
2016-Aug-18 18:01N 72°14' E 017°59'0 0.1
2016-Aug-18 17:01N 72°14' E 017°59'0 0.1
2016-Aug-18 16:01N 72°14' E 017°59'0 0.2
2016-Aug-18 15:01N 72°14' E 017°59'1 0.4
2016-Aug-18 13:01N 72°14' E 017°56'1 0.7
2016-Aug-18 12:01N 72°14' E 017°54'1 0.8
2016-Aug-18 11:01N 72°14' E 017°52'1 0.8
2016-Aug-18 10:01N 72°13' E 017°50'1 0.7
2016-Aug-18 09:01N 72°13' E 017°48'1 0.5
2016-Aug-18 08:01N 72°12' E 017°47'0 0.5
2016-Aug-18 07:01N 72°12' E 017°47'0 0.3
2016-Aug-18 06:01N 72°11' E 017°48'0 0.2
2016-Aug-18 05:01N 72°11' E 017°48'0 0.1
2016-Aug-18 04:01N 72°11' E 017°48'1 0.4
2016-Aug-18 02:01N 72°12' E 017°46'1 0.6
2016-Aug-18 01:01N 72°12' E 017°44'2 0.8
2016-Aug-17 23:01N 72°12' E 017°39'1 0.8
2016-Aug-17 22:01N 72°12' E 017°36'1 0.7
2016-Aug-17 21:01N 72°11' E 017°34'0 0.5
2016-Aug-17 20:01N 72°11' E 017°32'0 0.4
2016-Aug-17 19:01N 72°11' E 017°31'0 0.3
2016-Aug-17 18:01N 72°11' E 017°30'0 0.3
2016-Aug-17 17:01N 72°11' E 017°29'0 0.2
2016-Aug-17 16:01N 72°11' E 017°29'0 0.3
2016-Aug-17 15:01N 72°11' E 017°28'0 0.5
2016-Aug-17 14:01N 72°11' E 017°26'1 0.6
2016-Aug-17 12:01N 72°10' E 017°22'1 0.7
2016-Aug-17 11:01N 72°10' E 017°20'1 0.7
2016-Aug-17 09:01N 72°09' E 017°16'1 0.5
2016-Aug-17 08:01N 72°09' E 017°15'0 0.3
2016-Aug-17 07:01N 72°09' E 017°14'0 0.2
2016-Aug-17 06:01N 72°09' E 017°14'0 0.3
2016-Aug-17 05:01N 72°09' E 017°13'0 0.4
2016-Aug-17 04:01N 72°09' E 017°11'0 0.4
2016-Aug-17 03:01N 72°09' E 017°10'1 0.5
2016-Aug-17 02:01N 72°09' E 017°08'1 0.6
2016-Aug-17 01:01N 72°09' E 017°06'1 0.7
2016-Aug-17 00:01N 72°09' E 017°04'1 0.8
2016-Aug-16 23:01N 72°08' E 017°02'2 0.7
2016-Aug-16 20:01N 72°07' E 016°57'1 0.5
2016-Aug-16 19:01N 72°06' E 016°56'1 0.5
2016-Aug-16 18:01N 72°06' E 016°55'0 0.4
2016-Aug-16 17:01N 72°06' E 016°55'0 0.5
2016-Aug-16 16:01N 72°05' E 016°54'0 0.4
2016-Aug-16 15:01N 72°05' E 016°53'0 0.4
2016-Aug-16 14:01N 72°04' E 016°53'0 0.3
2016-Aug-16 13:01N 72°04' E 016°52'0 0.4
2016-Aug-16 12:01N 72°04' E 016°50'1 0.5
2016-Aug-16 11:01N 72°04' E 016°49'0 0.3
2016-Aug-16 10:01N 72°04' E 016°48'1 1.0
2016-Aug-16 09:01N 72°03' E 016°45'0 0.5
2016-Aug-16 08:01N 72°03' E 016°44'0 0.4
2016-Aug-16 07:01N 72°03' E 016°43'0 0.3
2016-Aug-16 06:01N 72°03' E 016°42'0 0.3
2016-Aug-16 05:01N 72°02' E 016°41'0 0.2
2016-Aug-16 04:01N 72°02' E 016°41'0 0.3
2016-Aug-16 03:01N 72°02' E 016°40'0 0.4
2016-Aug-16 02:01N 72°03' E 016°38'0 0.5
2016-Aug-16 01:01N 72°02' E 016°37'1 0.5
2016-Aug-16 00:01N 72°02' E 016°35'1 0.6
2016-Aug-15 23:01N 72°02' E 016°34'1 0.7
2016-Aug-15 22:01N 72°01' E 016°33'1 0.6
2016-Aug-15 21:01N 72°01' E 016°32'1 0.6
2016-Aug-15 20:01N 72°00' E 016°31'1 0.6
2016-Aug-15 19:01N 71°60' E 016°31'0 0.4
2016-Aug-15 18:01N 71°59' E 016°30'0 0.4
2016-Aug-15 17:01N 71°59' E 016°30'0 0.5
2016-Aug-15 16:01N 71°58' E 016°30'1 0.5
2016-Aug-15 15:01N 71°58' E 016°29'0 0.4
2016-Aug-15 14:01N 71°57' E 016°30'0 0.4
2016-Aug-15 13:01N 71°57' E 016°29'1 0.5
2016-Aug-15 12:01N 71°56' E 016°29'0 0.5
2016-Aug-15 11:01N 71°56' E 016°28'0 0.5
2016-Aug-15 10:01N 71°56' E 016°28'0 0.4
2016-Aug-15 09:01N 71°55' E 016°28'1 0.5
2016-Aug-15 08:01N 71°55' E 016°28'1 0.7
2016-Aug-15 07:01N 71°54' E 016°28'1 0.6
2016-Aug-15 06:01N 71°53' E 016°29'1 0.6
2016-Aug-15 05:01N 71°53' E 016°30'1 0.6
2016-Aug-15 04:01N 71°53' E 016°32'1 0.5
2016-Aug-15 03:01N 71°52' E 016°33'0 0.5
2016-Aug-15 02:01N 71°52' E 016°35'0 0.3
2016-Aug-15 01:01N 71°52' E 016°36'0 0.2
2016-Aug-15 00:01N 71°53' E 016°35'  
Track history (hours):
 
Tides and Currents Weather Stations Pressure Air Temp Water Temp Dewpoint Dewpoint Depression Visibility Wind Speed Wind Dir Waves Ship Positions

Drifting buoy 44845

Last reported at 2016-Aug-25 00:01 UTC. Time now 2016-Aug-25 01:04 UTC.
Position N 71°55' E 019°39'.

Date/timePositionNaut miles runAvg speedWind from/ knotsBaromVisibWave heightAir tempDewpointWater temp
2016-Aug-25 00:01N 71°55' E 019°39'0 0.2
2016-Aug-24 23:01N 71°55' E 019°39'0 0.3
2016-Aug-24 22:01N 71°55' E 019°40'0 0.3
2016-Aug-24 21:01N 71°55' E 019°39'1 0.5
2016-Aug-24 20:01N 71°56' E 019°38'1 0.6
2016-Aug-24 19:01N 71°56' E 019°36'1 0.7
2016-Aug-24 18:01N 71°56' E 019°34'1 0.8
2016-Aug-24 17:01N 71°56' E 019°31'1 0.7
2016-Aug-24 16:01N 71°56' E 019°29'1 0.6
2016-Aug-24 15:01N 71°56' E 019°27'0 0.4
2016-Aug-24 14:01N 71°56' E 019°26'0 0.3
2016-Aug-24 13:01N 71°56' E 019°25'0 0.1
2016-Aug-24 12:01N 71°56' E 019°25'0 0.2
2016-Aug-24 10:01N 71°56' E 019°25'0 0.3
2016-Aug-24 09:01N 71°56' E 019°25'0 0.4
2016-Aug-24 08:01N 71°57' E 019°24'1 0.5
2016-Aug-24 07:01N 71°57' E 019°23'1 0.6
2016-Aug-24 06:01N 71°57' E 019°21'1 0.7
2016-Aug-24 05:01N 71°57' E 019°19'1 0.7
2016-Aug-24 04:01N 71°57' E 019°17'1 0.5
2016-Aug-24 03:01N 71°57' E 019°15'0 0.4
2016-Aug-24 02:01N 71°57' E 019°14'0 0.1
2016-Aug-24 01:01N 71°57' E 019°13'0 0.2
2016-Aug-24 00:01N 71°57' E 019°14'0 0.3
2016-Aug-23 23:01N 71°58' E 019°14'1 0.5
2016-Aug-23 22:01N 71°58' E 019°15'1 0.5
2016-Aug-23 21:01N 71°59' E 019°16'1 0.6
2016-Aug-23 20:01N 71°59' E 019°16'1 0.6
2016-Aug-23 19:01N 71°60' E 019°15'1 0.6
2016-Aug-23 18:01N 72°00' E 019°14'1 0.7
2016-Aug-23 17:01N 72°00' E 019°12'1 0.8
2016-Aug-23 16:01N 72°00' E 019°09'1 0.7
2016-Aug-23 15:01N 72°00' E 019°07'1 0.6
2016-Aug-23 14:01N 71°60' E 019°05'0 0.4
2016-Aug-23 13:01N 71°59' E 019°04'0 0.2
2016-Aug-23 12:01N 71°59' E 019°05'0 0.3
2016-Aug-23 11:01N 71°59' E 019°06'0 0.4
2016-Aug-23 10:01N 71°59' E 019°06'0 0.5
2016-Aug-23 09:01N 71°60' E 019°07'1 0.5
2016-Aug-23 08:01N 72°00' E 019°08'1 0.5
2016-Aug-23 07:01N 72°01' E 019°08'1 0.6
2016-Aug-23 06:01N 72°01' E 019°06'1 0.7
2016-Aug-23 05:01N 72°02' E 019°04'1 0.7
2016-Aug-23 04:01N 72°02' E 019°02'1 0.7
2016-Aug-23 03:01N 72°02' E 018°60'1 0.6
2016-Aug-23 02:01N 72°02' E 018°58'0 0.4
2016-Aug-23 01:01N 72°01' E 018°57'0 0.2
2016-Aug-23 00:01N 72°01' E 018°57'0 0.2
2016-Aug-22 22:01N 72°02' E 018°58'0 0.4
2016-Aug-22 21:01N 72°02' E 018°58'1 0.5
2016-Aug-22 20:01N 72°03' E 018°58'1 0.6
2016-Aug-22 19:01N 72°03' E 018°57'1 0.7
2016-Aug-22 18:01N 72°03' E 018°56'1 0.8
2016-Aug-22 17:01N 72°04' E 018°53'1 0.9
2016-Aug-22 16:01N 72°04' E 018°50'1 0.8
2016-Aug-22 15:01N 72°04' E 018°48'1 0.6
2016-Aug-22 13:01N 72°04' E 018°44'0 0.2
2016-Aug-22 12:01N 72°03' E 018°43'0 0.1
2016-Aug-22 11:01N 72°03' E 018°43'0 0.2
2016-Aug-22 10:01N 72°03' E 018°44'0 0.4
2016-Aug-22 09:01N 72°04' E 018°45'0 0.4
2016-Aug-22 08:01N 72°04' E 018°45'0 0.4
2016-Aug-22 07:01N 72°05' E 018°44'0 0.5
2016-Aug-22 06:01N 72°05' E 018°43'1 0.6
2016-Aug-22 05:01N 72°05' E 018°42'1 0.7
2016-Aug-22 04:01N 72°05' E 018°39'1 0.8
2016-Aug-22 03:01N 72°05' E 018°37'1 0.6
2016-Aug-22 02:01N 72°05' E 018°35'1 0.5
2016-Aug-22 01:01N 72°05' E 018°33'0 0.4
2016-Aug-22 00:01N 72°04' E 018°32'0 0.2
2016-Aug-21 23:01N 72°04' E 018°32'0 0.2
2016-Aug-21 22:01N 72°04' E 018°33'0 0.3
2016-Aug-21 21:01N 72°04' E 018°34'0 0.4
2016-Aug-21 20:01N 72°05' E 018°34'0 0.5
2016-Aug-21 19:01N 72°05' E 018°35'1 0.5
2016-Aug-21 18:01N 72°06' E 018°34'1 0.7
2016-Aug-21 17:01N 72°06' E 018°32'1 0.8
2016-Aug-21 16:01N 72°06' E 018°30'1 0.8
2016-Aug-21 15:01N 72°06' E 018°27'1 0.9
2016-Aug-21 14:01N 72°06' E 018°24'1 0.6
2016-Aug-21 12:01N 72°06' E 018°21'1 0.3
2016-Aug-21 10:01N 72°06' E 018°20'1 0.3
2016-Aug-21 08:01N 72°06' E 018°22'0 0.5
2016-Aug-21 07:01N 72°06' E 018°23'1 0.5
2016-Aug-21 06:01N 72°06' E 018°24'0 0.4
2016-Aug-21 05:01N 72°07' E 018°24'0 0.5
2016-Aug-21 04:01N 72°07' E 018°24'0 0.5
2016-Aug-21 03:01N 72°07' E 018°22'0 0.5
2016-Aug-21 02:01N 72°08' E 018°21'0 0.4
2016-Aug-21 01:01N 72°08' E 018°20'0 0.2
2016-Aug-21 00:01N 72°08' E 018°19'0 0.1
2016-Aug-20 23:01N 72°08' E 018°19'0 0.2
2016-Aug-20 22:01N 72°08' E 018°20'0 0.3
2016-Aug-20 21:01N 72°08' E 018°21'0 0.4
2016-Aug-20 20:01N 72°08' E 018°21'0 0.3
2016-Aug-20 19:01N 72°08' E 018°22'0 0.4
2016-Aug-20 18:01N 72°08' E 018°23'0 0.4
2016-Aug-20 17:01N 72°09' E 018°23'1 0.5
2016-Aug-20 15:01N 72°09' E 018°21'0 0.5
2016-Aug-20 14:01N 72°09' E 018°20'0 0.5
2016-Aug-20 13:01N 72°09' E 018°18'0 0.4
2016-Aug-20 12:01N 72°09' E 018°17'0 0.4
2016-Aug-20 11:01N 72°09' E 018°17'1 0.5
2016-Aug-20 10:01N 72°08' E 018°18'1 0.6
2016-Aug-20 08:01N 72°08' E 018°22'1 0.7
2016-Aug-20 07:01N 72°08' E 018°24'1 0.7
2016-Aug-20 06:01N 72°08' E 018°27'1 0.7
2016-Aug-20 05:01N 72°08' E 018°29'1 0.6
2016-Aug-20 04:01N 72°09' E 018°29'1 0.7
2016-Aug-20 03:01N 72°10' E 018°29'1 0.7
2016-Aug-20 02:01N 72°10' E 018°28'1 0.7
2016-Aug-20 01:01N 72°11' E 018°26'1 0.7
2016-Aug-20 00:01N 72°11' E 018°24'0 0.5
2016-Aug-19 23:01N 72°11' E 018°22'0 0.2
2016-Aug-19 22:01N 72°11' E 018°22'0 0.1
2016-Aug-19 21:01N 72°11' E 018°21'0 0.2
2016-Aug-19 20:01N 72°11' E 018°22'0 0.3
2016-Aug-19 19:01N 72°11' E 018°23'0 0.4
2016-Aug-19 18:01N 72°11' E 018°24'2 0.6
2016-Aug-19 15:01N 72°13' E 018°21'1 0.9
2016-Aug-19 14:01N 72°13' E 018°18'1 0.9
2016-Aug-19 13:01N 72°13' E 018°15'1 0.6
2016-Aug-19 12:01N 72°13' E 018°14'1 0.5
2016-Aug-19 11:01N 72°13' E 018°12'0 0.4
2016-Aug-19 10:01N 72°13' E 018°11'0 0.3
2016-Aug-19 09:01N 72°12' E 018°11'0 0.2
2016-Aug-19 08:01N 72°12' E 018°11'0 0.2
2016-Aug-19 07:01N 72°12' E 018°11'0 0.3
2016-Aug-19 06:01N 72°12' E 018°12'0 0.3
2016-Aug-19 05:01N 72°12' E 018°13'0 0.4
2016-Aug-19 04:01N 72°13' E 018°13'1 0.6
2016-Aug-19 03:01N 72°13' E 018°13'1 0.7
2016-Aug-19 02:01N 72°14' E 018°11'1 0.8
2016-Aug-19 01:01N 72°14' E 018°09'1 0.9
2016-Aug-19 00:01N 72°15' E 018°06'1 0.9
2016-Aug-18 23:01N 72°15' E 018°03'1 0.7
2016-Aug-18 22:01N 72°15' E 018°01'1 0.5
2016-Aug-18 21:01N 72°14' E 017°60'0 0.4
2016-Aug-18 20:01N 72°14' E 017°59'0 0.3
2016-Aug-18 19:01N 72°14' E 017°58'0 0.2
2016-Aug-18 18:01N 72°14' E 017°59'0 0.1
2016-Aug-18 17:01N 72°14' E 017°59'0 0.1
2016-Aug-18 16:01N 72°14' E 017°59'0 0.2
2016-Aug-18 15:01N 72°14' E 017°59'1 0.4
2016-Aug-18 13:01N 72°14' E 017°56'1 0.7
2016-Aug-18 12:01N 72°14' E 017°54'1 0.8
2016-Aug-18 11:01N 72°14' E 017°52'1 0.8
2016-Aug-18 10:01N 72°13' E 017°50'1 0.7
2016-Aug-18 09:01N 72°13' E 017°48'1 0.5
2016-Aug-18 08:01N 72°12' E 017°47'0 0.5
2016-Aug-18 07:01N 72°12' E 017°47'0 0.3
2016-Aug-18 06:01N 72°11' E 017°48'0 0.2
2016-Aug-18 05:01N 72°11' E 017°48'0 0.1
2016-Aug-18 04:01N 72°11' E 017°48'1 0.4
2016-Aug-18 02:01N 72°12' E 017°46'1 0.6
2016-Aug-18 01:01N 72°12' E 017°44'2 0.8
2016-Aug-17 23:01N 72°12' E 017°39'1 0.8
2016-Aug-17 22:01N 72°12' E 017°36'1 0.7
2016-Aug-17 21:01N 72°11' E 017°34'0 0.5
2016-Aug-17 20:01N 72°11' E 017°32'0 0.4
2016-Aug-17 19:01N 72°11' E 017°31'0 0.3
2016-Aug-17 18:01N 72°11' E 017°30'0 0.3
2016-Aug-17 17:01N 72°11' E 017°29'0 0.2
2016-Aug-17 16:01N 72°11' E 017°29'0 0.3
2016-Aug-17 15:01N 72°11' E 017°28'0 0.5
2016-Aug-17 14:01N 72°11' E 017°26'1 0.6
2016-Aug-17 12:01N 72°10' E 017°22'1 0.7
2016-Aug-17 11:01N 72°10' E 017°20'1 0.7
2016-Aug-17 09:01N 72°09' E 017°16'1 0.5
2016-Aug-17 08:01N 72°09' E 017°15'0 0.3
2016-Aug-17 07:01N 72°09' E 017°14'0 0.2
2016-Aug-17 06:01N 72°09' E 017°14'0 0.3
2016-Aug-17 05:01N 72°09' E 017°13'0 0.4
2016-Aug-17 04:01N 72°09' E 017°11'0 0.4
2016-Aug-17 03:01N 72°09' E 017°10'1 0.5
2016-Aug-17 02:01N 72°09' E 017°08'1 0.6
2016-Aug-17 01:01N 72°09' E 017°06'1 0.7
2016-Aug-17 00:01N 72°09' E 017°04'1 0.8
2016-Aug-16 23:01N 72°08' E 017°02'2 0.7
2016-Aug-16 20:01N 72°07' E 016°57'1 0.5
2016-Aug-16 19:01N 72°06' E 016°56'1 0.5
2016-Aug-16 18:01N 72°06' E 016°55'0 0.4
2016-Aug-16 17:01N 72°06' E 016°55'0 0.5
2016-Aug-16 16:01N 72°05' E 016°54'0 0.4
2016-Aug-16 15:01N 72°05' E 016°53'0 0.4
2016-Aug-16 14:01N 72°04' E 016°53'0 0.3
2016-Aug-16 13:01N 72°04' E 016°52'0 0.4
2016-Aug-16 12:01N 72°04' E 016°50'1 0.5
2016-Aug-16 11:01N 72°04' E 016°49'0 0.3
2016-Aug-16 10:01N 72°04' E 016°48'1 1.0
2016-Aug-16 09:01N 72°03' E 016°45'0 0.5
2016-Aug-16 08:01N 72°03' E 016°44'0 0.4
2016-Aug-16 07:01N 72°03' E 016°43'0 0.3
2016-Aug-16 06:01N 72°03' E 016°42'0 0.3
2016-Aug-16 05:01N 72°02' E 016°41'0 0.2
2016-Aug-16 04:01N 72°02' E 016°41'0 0.3
2016-Aug-16 03:01N 72°02' E 016°40'0 0.4
2016-Aug-16 02:01N 72°03' E 016°38'0 0.5
2016-Aug-16 01:01N 72°02' E 016°37'1 0.5
2016-Aug-16 00:01N 72°02' E 016°35'1 0.6
2016-Aug-15 23:01N 72°02' E 016°34'1 0.7
2016-Aug-15 22:01N 72°01' E 016°33'1 0.6
2016-Aug-15 21:01N 72°01' E 016°32'1 0.6
2016-Aug-15 20:01N 72°00' E 016°31'1 0.6
2016-Aug-15 19:01N 71°60' E 016°31'0 0.4
2016-Aug-15 18:01N 71°59' E 016°30'0 0.4
2016-Aug-15 17:01N 71°59' E 016°30'0 0.5
2016-Aug-15 16:01N 71°58' E 016°30'1 0.5
2016-Aug-15 15:01N 71°58' E 016°29'0 0.4
2016-Aug-15 14:01N 71°57' E 016°30'0 0.4
2016-Aug-15 13:01N 71°57' E 016°29'1 0.5
2016-Aug-15 12:01N 71°56' E 016°29'0 0.5
2016-Aug-15 11:01N 71°56' E 016°28'0 0.5
2016-Aug-15 10:01N 71°56' E 016°28'0 0.4
2016-Aug-15 09:01N 71°55' E 016°28'1 0.5
2016-Aug-15 08:01N 71°55' E 016°28'1 0.7
2016-Aug-15 07:01N 71°54' E 016°28'1 0.6
2016-Aug-15 06:01N 71°53' E 016°29'1 0.6
2016-Aug-15 05:01N 71°53' E 016°30'1 0.6
2016-Aug-15 04:01N 71°53' E 016°32'1 0.5
2016-Aug-15 03:01N 71°52' E 016°33'0 0.5
2016-Aug-15 02:01N 71°52' E 016°35'0 0.3
2016-Aug-15 01:01N 71°52' E 016°36'0 0.2
2016-Aug-15 00:01N 71°53' E 016°35'  

Dump ship's entire track history